createdAt,value
2019-01-22T00:00:01.501Z,272.19
2019-01-22T00:01:01.622Z,272.00
2019-01-22T00:02:01.796Z,270.47
2019-01-22T00:03:01.969Z,271.88
2019-01-22T00:04:02.139Z,272.18
2019-01-22T00:05:02.323Z,270.90
2019-01-22T00:06:02.472Z,272.22
2019-01-22T00:07:02.649Z,272.08
2019-01-22T00:08:02.910Z,271.40
2019-01-22T00:09:02.974Z,271.45
2019-01-22T00:10:03.135Z,270.97
2019-01-22T00:11:03.335Z,270.74
2019-01-22T00:12:03.499Z,271.05
2019-01-22T00:13:03.700Z,271.83
2019-01-22T00:14:03.819Z,271.86
2019-01-22T00:15:04.007Z,271.65
2019-01-22T00:16:04.308Z,272.30
2019-01-22T00:17:04.337Z,272.11
2019-01-22T00:18:04.521Z,271.86
2019-01-22T00:19:04.680Z,271.81
2019-01-22T00:20:04.877Z,272.22
2019-01-22T00:21:05.060Z,272.04
2019-01-22T00:22:05.210Z,271.07
2019-01-22T00:23:05.399Z,272.29
2019-01-22T00:24:05.620Z,272.45
2019-01-22T00:25:05.708Z,270.86
2019-01-22T00:26:05.888Z,271.94
2019-01-22T00:27:06.049Z,270.93
2019-01-22T00:28:06.226Z,271.49
2019-01-22T00:29:06.379Z,271.27
2019-01-22T00:30:06.541Z,271.81
2019-01-22T00:31:06.719Z,221.07
2019-01-22T00:32:06.937Z,221.03
2019-01-22T00:33:07.051Z,221.06
2019-01-22T00:34:07.213Z,221.04
2019-01-22T00:35:07.384Z,221.03
2019-01-22T00:36:07.550Z,221.03
2019-01-22T00:37:07.694Z,221.09
2019-01-22T00:38:07.906Z,220.99
2019-01-22T00:39:08.062Z,220.97
2019-01-22T00:40:08.253Z,221.06
2019-01-22T00:41:08.420Z,220.97
2019-01-22T00:42:08.559Z,220.99
2019-01-22T00:43:08.760Z,220.95
2019-01-22T00:44:08.912Z,221.07
2019-01-22T00:45:09.090Z,221.01
2019-01-22T00:46:09.269Z,221.09
2019-01-22T00:47:09.416Z,221.01
2019-01-22T00:48:09.598Z,221.00
2019-01-22T00:49:09.890Z,221.07
2019-01-22T00:50:09.933Z,221.07
2019-01-22T00:51:10.106Z,221.06
2019-01-22T00:52:10.243Z,221.14
2019-01-22T00:53:10.672Z,221.09
2019-01-22T00:54:10.606Z,221.16
2019-01-22T00:55:10.774Z,221.24
2019-01-22T00:56:10.978Z,221.23
2019-01-22T00:57:11.202Z,221.23
2019-01-22T00:58:11.282Z,221.16
2019-01-22T00:59:11.449Z,221.24
2019-01-22T01:00:11.618Z,221.29
2019-01-22T01:01:11.803Z,221.29
2019-01-22T01:02:11.956Z,221.21
2019-01-22T01:03:12.141Z,221.21
2019-01-22T01:04:12.274Z,221.23
2019-01-22T01:05:12.517Z,221.25
2019-01-22T01:06:12.625Z,221.24
2019-01-22T01:07:12.787Z,221.21
2019-01-22T01:08:12.973Z,221.21
2019-01-22T01:09:13.123Z,221.23
2019-01-22T01:10:13.268Z,221.23
2019-01-22T01:11:13.477Z,221.23
2019-01-22T01:12:13.624Z,221.25
2019-01-22T01:13:13.841Z,221.27
2019-01-22T01:14:13.976Z,221.30
2019-01-22T01:15:14.153Z,221.36
2019-01-22T01:16:14.335Z,221.32
2019-01-22T01:17:14.486Z,221.39
2019-01-22T01:18:14.739Z,221.38
2019-01-22T01:19:14.842Z,221.41
2019-01-22T01:20:15.013Z,221.44
2019-01-22T01:21:15.199Z,221.48
2019-01-22T01:22:15.447Z,221.48
2019-01-22T01:23:16.877Z,221.47
2019-01-22T01:24:15.703Z,221.44
2019-01-22T01:25:15.850Z,221.48
2019-01-22T01:26:16.023Z,221.42
2019-01-22T01:27:16.189Z,221.38
2019-01-22T01:28:16.404Z,221.39
2019-01-22T01:29:16.558Z,221.42
2019-01-22T01:30:16.814Z,221.46
2019-01-22T01:31:16.877Z,221.38
2019-01-22T01:32:17.040Z,221.36
2019-01-22T01:33:17.250Z,221.32
2019-01-22T01:34:17.417Z,221.36
2019-01-22T01:35:17.568Z,221.27
2019-01-22T01:36:17.754Z,221.31
2019-01-22T01:37:17.892Z,221.30
2019-01-22T01:38:18.157Z,221.27
2019-01-22T01:39:18.243Z,221.27
2019-01-22T01:40:18.402Z,221.21
2019-01-22T01:41:18.588Z,221.07
2019-01-22T01:42:18.739Z,221.16
2019-01-22T01:43:18.905Z,221.07
2019-01-22T01:44:19.092Z,221.07
2019-01-22T01:45:19.247Z,221.06
2019-01-22T01:46:19.499Z,221.04
2019-01-22T01:47:19.562Z,221.04
2019-01-22T01:48:19.736Z,220.91
2019-01-22T01:49:19.924Z,220.89
2019-01-22T01:50:20.073Z,220.82
2019-01-22T01:51:20.263Z,220.82
2019-01-22T01:52:20.470Z,220.82
2019-01-22T01:53:23.780Z,220.75
2019-01-22T01:54:20.813Z,220.82
2019-01-22T01:55:20.975Z,220.77
2019-01-22T01:56:21.102Z,220.68
2019-01-22T01:57:21.262Z,220.77
2019-01-22T01:58:21.433Z,220.73
2019-01-22T01:59:21.633Z,220.77
2019-01-22T02:00:21.754Z,220.80
2019-01-22T02:01:21.956Z,220.82
2019-01-22T02:02:22.128Z,220.73
2019-01-22T02:03:22.387Z,220.82
2019-01-22T02:04:22.487Z,220.91
2019-01-22T02:05:22.610Z,220.79
2019-01-22T02:06:22.808Z,220.82
2019-01-22T02:07:22.957Z,220.83
2019-01-22T02:08:23.130Z,220.83
2019-01-22T02:09:23.333Z,220.83
2019-01-22T02:10:23.472Z,220.82
2019-01-22T02:11:23.784Z,220.77
2019-01-22T02:12:23.799Z,220.77
2019-01-22T02:13:23.967Z,220.74
2019-01-22T02:14:24.173Z,220.79
2019-01-22T02:15:24.307Z,220.74
2019-01-22T02:16:24.460Z,220.75
2019-01-22T02:17:24.657Z,220.79
2019-01-22T02:18:24.844Z,220.74
2019-01-22T02:19:25.071Z,220.77
2019-01-22T02:20:25.160Z,220.75
2019-01-22T02:21:25.337Z,220.75
2019-01-22T02:22:25.506Z,220.77
2019-01-22T02:23:30.635Z,220.73
2019-01-22T02:24:26.905Z,220.65
2019-01-22T02:25:26.037Z,220.67
2019-01-22T02:26:26.204Z,220.68
2019-01-22T02:27:26.480Z,220.62
2019-01-22T02:28:26.526Z,220.65
2019-01-22T02:29:26.757Z,220.65
2019-01-22T02:30:26.892Z,220.58
2019-01-22T02:31:27.056Z,220.53
2019-01-22T02:32:27.775Z,220.53
2019-01-22T02:33:27.465Z,220.55
2019-01-22T02:34:27.577Z,220.53
2019-01-22T02:35:27.751Z,220.50
2019-01-22T02:36:28.017Z,220.51
2019-01-22T02:37:28.108Z,220.49
2019-01-22T02:38:28.256Z,220.44
2019-01-22T02:39:28.434Z,220.38
2019-01-22T02:40:28.592Z,220.44
2019-01-22T02:41:28.769Z,220.42
2019-01-22T02:42:28.946Z,220.35
2019-01-22T02:43:29.090Z,220.35
2019-01-22T02:44:29.403Z,220.35
2019-01-22T02:45:29.430Z,220.30
2019-01-22T02:46:29.619Z,220.27
2019-01-22T02:47:29.797Z,220.27
2019-01-22T02:48:29.947Z,220.26
2019-01-22T02:49:30.149Z,220.27
2019-01-22T02:50:30.267Z,220.16
2019-01-22T02:51:30.456Z,220.13
2019-01-22T02:52:30.702Z,220.20
2019-01-22T02:53:30.773Z,220.15
2019-01-22T02:54:32.365Z,220.11
2019-01-22T02:55:31.097Z,220.08
2019-01-22T02:56:31.267Z,220.06
2019-01-22T02:57:31.471Z,220.01
2019-01-22T02:58:31.622Z,220.09
2019-01-22T02:59:31.822Z,220.04
2019-01-22T03:00:31.995Z,220.03
2019-01-22T03:01:32.086Z,220.04
2019-01-22T03:02:32.297Z,220.01
2019-01-22T03:03:32.521Z,220.06
2019-01-22T03:04:32.658Z,220.02
2019-01-22T03:05:32.794Z,220.06
2019-01-22T03:06:32.961Z,219.98
2019-01-22T03:07:33.132Z,220.03
2019-01-22T03:08:33.299Z,219.95
2019-01-22T03:09:33.561Z,219.93
2019-01-22T03:10:33.640Z,219.92
2019-01-22T03:11:33.807Z,219.96
2019-01-22T03:12:33.980Z,219.96
2019-01-22T03:13:34.149Z,219.91
2019-01-22T03:14:34.337Z,219.96
2019-01-22T03:15:34.481Z,219.97
2019-01-22T03:16:34.683Z,219.89
2019-01-22T03:17:34.950Z,219.95
2019-01-22T03:18:34.989Z,219.89
2019-01-22T03:19:35.155Z,219.88
2019-01-22T03:20:35.320Z,219.88
2019-01-22T03:21:35.490Z,219.83
2019-01-22T03:22:35.699Z,219.83
2019-01-22T03:23:35.824Z,219.83
2019-01-22T03:24:36.008Z,219.88
2019-01-22T03:25:36.312Z,270.01
2019-01-22T03:26:36.366Z,270.19
2019-01-22T03:27:36.570Z,269.39
2019-01-22T03:28:36.680Z,271.03
2019-01-22T03:29:36.856Z,270.06
2019-01-22T03:30:37.060Z,270.30
2019-01-22T03:31:37.216Z,269.76
2019-01-22T03:32:37.413Z,270.20
2019-01-22T03:33:37.575Z,269.49
2019-01-22T03:34:37.683Z,270.08
2019-01-22T03:35:37.909Z,269.56
2019-01-22T03:36:38.055Z,270.59
2019-01-22T03:37:38.239Z,270.06
2019-01-22T03:38:38.390Z,270.93
2019-01-22T03:39:38.554Z,270.55
2019-01-22T03:40:38.761Z,270.70
2019-01-22T03:41:38.924Z,270.47
2019-01-22T03:42:39.144Z,269.19
2019-01-22T03:43:39.239Z,271.33
2019-01-22T03:44:39.410Z,269.39
2019-01-22T03:45:39.613Z,270.88
2019-01-22T03:46:39.731Z,270.18
2019-01-22T03:47:39.932Z,271.86
2019-01-22T03:48:40.100Z,270.12
2019-01-22T03:49:40.281Z,271.45
2019-01-22T03:50:40.568Z,270.53
2019-01-22T03:51:40.591Z,270.76
2019-01-22T03:52:40.794Z,270.31
2019-01-22T03:53:40.942Z,271.33
2019-01-22T03:54:41.114Z,270.11
2019-01-22T03:55:41.309Z,270.32
2019-01-22T03:56:41.453Z,270.51
2019-01-22T03:57:41.620Z,270.53
2019-01-22T03:58:41.875Z,271.63
2019-01-22T03:59:41.994Z,270.33
2019-01-22T04:00:42.189Z,269.88
2019-01-22T04:01:42.336Z,270.09
2019-01-22T04:02:42.508Z,271.13
2019-01-22T04:03:42.686Z,270.13
2019-01-22T04:04:42.844Z,270.73
2019-01-22T04:05:43.040Z,270.83
2019-01-22T04:06:43.271Z,270.25
2019-01-22T04:07:43.348Z,271.00
2019-01-22T04:08:43.510Z,270.10
2019-01-22T04:09:43.916Z,271.50
2019-01-22T04:10:43.878Z,270.93
2019-01-22T04:11:44.016Z,271.42
2019-01-22T04:12:44.201Z,269.88
2019-01-22T04:13:44.359Z,271.81
2019-01-22T04:14:44.559Z,270.29
2019-01-22T04:15:44.696Z,272.22
2019-01-22T04:16:44.844Z,270.77
2019-01-22T04:17:45.037Z,270.48
2019-01-22T04:18:45.187Z,270.66
2019-01-22T04:19:45.361Z,270.82
2019-01-22T04:20:45.542Z,271.37
2019-01-22T04:21:45.697Z,270.77
2019-01-22T04:22:45.903Z,272.27
2019-01-22T04:23:46.150Z,272.44
2019-01-22T04:24:46.222Z,271.97
2019-01-22T04:25:46.400Z,271.18
2019-01-22T04:26:46.557Z,271.01
2019-01-22T04:27:46.734Z,272.25
2019-01-22T04:28:46.937Z,271.51
2019-01-22T04:29:47.099Z,272.17
2019-01-22T04:30:47.288Z,271.14
2019-01-22T04:31:47.526Z,270.99
2019-01-22T04:32:47.604Z,271.84
2019-01-22T04:33:47.803Z,272.09
2019-01-22T04:34:47.949Z,272.40
2019-01-22T04:35:48.140Z,272.05
2019-01-22T04:36:48.276Z,271.34
2019-01-22T04:37:48.469Z,271.89
2019-01-22T04:38:48.655Z,271.34
2019-01-22T04:39:48.888Z,271.85
2019-01-22T04:40:48.999Z,271.28
2019-01-22T04:41:49.115Z,271.27
2019-01-22T04:42:49.304Z,270.92
2019-01-22T04:43:49.505Z,270.91
2019-01-22T04:44:49.654Z,270.98
2019-01-22T04:45:49.879Z,270.87
2019-01-22T04:46:49.990Z,271.77
2019-01-22T04:47:50.224Z,271.25
2019-01-22T04:48:50.329Z,272.31
2019-01-22T04:49:50.504Z,270.81
2019-01-22T04:50:50.707Z,270.90
2019-01-22T04:51:50.841Z,271.42
2019-01-22T04:52:51.006Z,271.37
2019-01-22T04:53:51.197Z,270.46
2019-01-22T04:54:51.337Z,269.99
2019-01-22T04:55:51.595Z,271.22
2019-01-22T04:56:51.712Z,270.26
2019-01-22T04:57:51.859Z,271.77
2019-01-22T04:58:52.048Z,270.95
2019-01-22T04:59:52.181Z,271.47
2019-01-22T05:00:52.400Z,271.82
2019-01-22T05:01:52.535Z,270.19
2019-01-22T05:02:52.702Z,270.79
2019-01-22T05:03:52.904Z,271.33
2019-01-22T05:04:53.159Z,270.59
2019-01-22T05:05:53.256Z,270.20
2019-01-22T05:06:53.375Z,269.69
2019-01-22T05:07:53.553Z,271.49
2019-01-22T05:08:53.753Z,270.02
2019-01-22T05:09:53.887Z,270.11
2019-01-22T05:10:54.073Z,270.58
2019-01-22T05:11:54.257Z,270.38
2019-01-22T05:12:54.553Z,270.74
2019-01-22T05:13:54.590Z,270.40
2019-01-22T05:14:54.732Z,270.77
2019-01-22T05:15:54.949Z,271.67
2019-01-22T05:16:55.107Z,270.08
2019-01-22T05:17:55.283Z,271.06
2019-01-22T05:18:55.451Z,270.77
2019-01-22T05:19:55.599Z,270.30
2019-01-22T05:20:55.905Z,270.35
2019-01-22T05:21:55.933Z,271.06
2019-01-22T05:22:56.099Z,271.26
2019-01-22T05:23:56.282Z,269.49
2019-01-22T05:24:56.431Z,271.17
2019-01-22T05:25:56.621Z,269.79
2019-01-22T05:26:56.798Z,271.17
2019-01-22T05:27:57.729Z,270.83
2019-01-22T05:28:57.168Z,270.67
2019-01-22T05:29:57.259Z,270.20
2019-01-22T05:30:57.431Z,270.09
2019-01-22T05:31:57.620Z,271.47
2019-01-22T05:32:57.762Z,270.69
2019-01-22T05:33:57.951Z,272.87
2019-01-22T05:34:58.119Z,271.56
2019-01-22T05:35:58.287Z,272.28
2019-01-22T05:36:58.509Z,271.39
2019-01-22T05:37:58.710Z,270.64
2019-01-22T05:38:58.812Z,270.15
2019-01-22T05:39:58.988Z,270.40
2019-01-22T05:40:59.150Z,269.63
2019-01-22T05:41:59.359Z,269.33
2019-01-22T05:42:59.487Z,269.95
2019-01-22T05:43:59.677Z,219.95
2019-01-22T05:44:59.825Z,219.92
2019-01-22T05:46:00.139Z,219.95
2019-01-22T05:47:00.436Z,219.89
2019-01-22T05:48:00.336Z,220.03
2019-01-22T05:49:00.524Z,220.02
2019-01-22T05:50:00.660Z,220.03
2019-01-22T05:51:00.850Z,219.98
2019-01-22T05:52:01.106Z,220.03
2019-01-22T05:53:01.198Z,220.03
2019-01-22T05:54:01.459Z,220.00
2019-01-22T05:55:01.504Z,219.98
2019-01-22T05:56:01.691Z,219.97
2019-01-22T05:57:01.911Z,219.98
2019-01-22T05:58:02.048Z,220.00
2019-01-22T05:59:02.232Z,220.01
2019-01-22T06:00:02.387Z,219.97
2019-01-22T06:01:02.545Z,220.04
2019-01-22T06:02:02.810Z,220.06
2019-01-22T06:03:02.876Z,220.01
2019-01-22T06:04:03.068Z,220.04
2019-01-22T06:05:03.222Z,220.03
2019-01-22T06:06:03.394Z,220.03
2019-01-22T06:07:03.574Z,220.00
2019-01-22T06:08:03.724Z,220.02
2019-01-22T06:09:03.918Z,219.95
2019-01-22T06:10:04.134Z,220.03
2019-01-22T06:11:04.282Z,220.03
2019-01-22T06:12:04.438Z,220.03
2019-01-22T06:13:04.563Z,220.04
2019-01-22T06:14:04.767Z,219.93
2019-01-22T06:15:04.918Z,219.93
2019-01-22T06:16:05.088Z,219.96
2019-01-22T06:17:05.290Z,219.92
2019-01-22T06:18:05.438Z,219.89
2019-01-22T06:19:05.721Z,219.97
2019-01-22T06:20:05.761Z,219.97
2019-01-22T06:21:05.936Z,219.92
2019-01-22T06:22:06.127Z,219.92
2019-01-22T06:23:06.251Z,219.91
2019-01-22T06:24:06.440Z,219.88
2019-01-22T06:25:06.608Z,219.88
2019-01-22T06:26:06.766Z,219.88
2019-01-22T06:27:07.114Z,219.91
2019-01-22T06:28:07.093Z,219.86
2019-01-22T06:29:07.295Z,219.83
2019-01-22T06:30:07.461Z,219.88
2019-01-22T06:31:07.631Z,219.85
2019-01-22T06:32:07.837Z,219.80
2019-01-22T06:33:07.970Z,219.83
2019-01-22T06:34:08.143Z,219.85
2019-01-22T06:35:08.334Z,219.80
2019-01-22T06:36:08.462Z,219.83
2019-01-22T06:37:08.661Z,219.81
2019-01-22T06:38:08.804Z,219.86
2019-01-22T06:39:08.972Z,219.85
2019-01-22T06:40:09.161Z,219.77
2019-01-22T06:41:09.320Z,219.83
2019-01-22T06:42:11.432Z,219.77
2019-01-22T06:43:09.702Z,219.76
2019-01-22T06:44:09.724Z,219.76
2019-01-22T06:45:09.943Z,219.74
2019-01-22T06:46:10.087Z,219.77
2019-01-22T06:47:10.297Z,219.76
2019-01-22T06:48:10.418Z,219.77
2019-01-22T06:49:10.591Z,219.76
2019-01-22T06:50:10.772Z,219.74
2019-01-22T06:51:10.940Z,219.74
2019-01-22T06:52:11.247Z,219.70
2019-01-22T06:53:11.340Z,219.74
2019-01-22T06:54:11.487Z,219.74
2019-01-22T06:55:11.682Z,219.77
2019-01-22T06:56:11.813Z,219.74
2019-01-22T06:57:12.009Z,219.74
2019-01-22T06:58:12.181Z,219.74
2019-01-22T06:59:12.332Z,219.74
2019-01-22T07:00:12.652Z,219.76
2019-01-22T07:01:12.641Z,219.70
2019-01-22T07:02:12.840Z,219.65
2019-01-22T07:03:13.001Z,219.77
2019-01-22T07:04:13.164Z,219.65
2019-01-22T07:05:14.255Z,219.65
2019-01-22T07:06:14.252Z,219.73
2019-01-22T07:07:13.687Z,219.74
2019-01-22T07:08:13.924Z,219.66
2019-01-22T07:09:14.016Z,219.73
2019-01-22T07:10:14.205Z,219.73
2019-01-22T07:11:14.352Z,219.65
2019-01-22T07:12:14.551Z,219.70
2019-01-22T07:13:14.677Z,219.65
2019-01-22T07:14:14.859Z,219.65
2019-01-22T07:15:15.043Z,219.66
2019-01-22T07:16:15.230Z,219.60
2019-01-22T07:17:15.388Z,219.62
2019-01-22T07:18:15.508Z,219.61
2019-01-22T07:19:15.689Z,219.51
2019-01-22T07:20:15.882Z,219.57
2019-01-22T07:21:16.035Z,219.51
2019-01-22T07:22:16.261Z,219.51
2019-01-22T07:23:16.387Z,219.49
2019-01-22T07:24:16.583Z,219.51
2019-01-22T07:25:17.009Z,219.47
2019-01-22T07:26:16.886Z,219.56
2019-01-22T07:27:17.108Z,219.53
2019-01-22T07:28:17.224Z,219.53
2019-01-22T07:29:17.394Z,219.49
2019-01-22T07:30:17.554Z,219.54
2019-01-22T07:31:17.731Z,219.47
2019-01-22T07:32:17.954Z,219.44
2019-01-22T07:33:18.230Z,219.44
2019-01-22T07:34:18.225Z,219.41
2019-01-22T07:35:18.417Z,219.38
2019-01-22T07:36:18.592Z,219.37
2019-01-22T07:37:18.778Z,219.38
2019-01-22T07:38:18.945Z,219.42
2019-01-22T07:39:19.093Z,219.32
2019-01-22T07:40:19.262Z,219.32
2019-01-22T07:41:19.527Z,219.37
2019-01-22T07:42:19.601Z,219.30
2019-01-22T07:43:19.776Z,219.28
2019-01-22T07:44:19.961Z,219.33
2019-01-22T07:45:20.099Z,219.29
2019-01-22T07:46:20.263Z,219.26
2019-01-22T07:47:20.449Z,219.21
2019-01-22T07:48:20.629Z,219.26
2019-01-22T07:49:20.817Z,219.24
2019-01-22T07:50:20.946Z,219.22
2019-01-22T07:51:21.099Z,219.26
2019-01-22T07:52:21.282Z,219.15
2019-01-22T07:53:21.479Z,219.22
2019-01-22T07:54:21.651Z,219.15
2019-01-22T07:55:21.824Z,219.15
2019-01-22T07:56:21.968Z,219.12
2019-01-22T07:57:22.165Z,219.11
2019-01-22T07:58:22.325Z,219.09
2019-01-22T07:59:22.470Z,219.09
2019-01-22T08:00:22.659Z,219.04
2019-01-22T08:01:22.810Z,269.98
2019-01-22T08:02:22.979Z,269.63
2019-01-22T08:03:23.165Z,268.86
2019-01-22T08:04:23.317Z,269.94
2019-01-22T08:05:23.516Z,268.62
2019-01-22T08:06:23.755Z,268.12
2019-01-22T08:07:23.816Z,269.63
2019-01-22T08:08:23.996Z,268.47
2019-01-22T08:09:24.161Z,269.23
2019-01-22T08:10:24.338Z,269.81
2019-01-22T08:11:24.490Z,269.09
2019-01-22T08:12:24.661Z,268.10
2019-01-22T08:13:24.842Z,269.61
2019-01-22T08:14:25.121Z,269.35
2019-01-22T08:15:25.183Z,269.18
2019-01-22T08:16:25.331Z,267.63
2019-01-22T08:17:25.510Z,269.60
2019-01-22T08:18:25.718Z,268.36
2019-01-22T08:19:25.850Z,270.16
2019-01-22T08:20:26.033Z,269.47
2019-01-22T08:21:26.187Z,269.66
2019-01-22T08:22:26.421Z,268.88
2019-01-22T08:23:26.525Z,269.90
2019-01-22T08:24:26.681Z,269.74
2019-01-22T08:25:26.866Z,269.63
2019-01-22T08:26:27.030Z,269.50
2019-01-22T08:27:29.699Z,268.56
2019-01-22T08:28:27.390Z,269.67
2019-01-22T08:29:27.583Z,268.91
2019-01-22T08:30:27.759Z,268.52
2019-01-22T08:31:27.859Z,269.03
2019-01-22T08:32:28.046Z,268.93
2019-01-22T08:33:28.227Z,268.69
2019-01-22T08:34:28.386Z,268.35
2019-01-22T08:35:28.555Z,268.93
2019-01-22T08:36:28.706Z,267.37
2019-01-22T08:37:28.896Z,269.80
2019-01-22T08:38:29.117Z,268.88
2019-01-22T08:39:29.295Z,269.62
2019-01-22T08:40:29.428Z,268.71
2019-01-22T08:41:29.565Z,269.13
2019-01-22T08:42:29.730Z,269.77
2019-01-22T08:43:29.935Z,269.29
2019-01-22T08:44:30.105Z,268.97
2019-01-22T08:45:30.273Z,268.25
2019-01-22T08:46:30.443Z,269.07
2019-01-22T08:47:30.695Z,268.44
2019-01-22T08:48:30.778Z,268.73
2019-01-22T08:49:30.949Z,268.03
2019-01-22T08:50:31.118Z,268.84
2019-01-22T08:51:31.269Z,267.47
2019-01-22T08:52:31.416Z,267.22
2019-01-22T08:53:31.621Z,269.83
2019-01-22T08:54:31.802Z,269.35
2019-01-22T08:55:32.062Z,268.06
2019-01-22T08:56:32.111Z,267.32
2019-01-22T08:57:32.266Z,268.20
2019-01-22T08:58:32.471Z,269.46
2019-01-22T08:59:32.637Z,268.89
2019-01-22T09:00:34.192Z,269.15
2019-01-22T09:01:35.522Z,268.11
2019-01-22T09:02:33.126Z,268.03
2019-01-22T09:03:33.334Z,267.48
2019-01-22T09:04:33.466Z,267.81
2019-01-22T09:05:33.858Z,267.96
2019-01-22T09:06:33.810Z,268.49
2019-01-22T09:07:33.974Z,269.36
2019-01-22T09:08:34.162Z,267.17
2019-01-22T09:09:34.307Z,268.28
2019-01-22T09:10:34.482Z,267.50
2019-01-22T09:11:34.718Z,269.15
2019-01-22T09:12:34.825Z,268.09
2019-01-22T09:13:35.024Z,268.41
2019-01-22T09:14:35.208Z,268.49
2019-01-22T09:15:35.333Z,267.86
2019-01-22T09:16:35.532Z,268.09
2019-01-22T09:17:35.684Z,268.49
2019-01-22T09:18:35.872Z,267.36
2019-01-22T09:19:36.069Z,268.51
2019-01-22T09:20:36.267Z,267.60
2019-01-22T09:21:36.376Z,267.56
2019-01-22T09:22:36.531Z,268.34
2019-01-22T09:23:36.718Z,269.08
2019-01-22T09:24:36.891Z,267.96
2019-01-22T09:25:37.042Z,268.66
2019-01-22T09:26:37.203Z,268.86
2019-01-22T09:27:37.376Z,267.49
2019-01-22T09:28:37.655Z,268.61
2019-01-22T09:29:37.722Z,268.52
2019-01-22T09:30:37.892Z,268.48
2019-01-22T09:31:38.058Z,267.77
2019-01-22T09:32:38.232Z,268.12
2019-01-22T09:33:38.422Z,267.79
2019-01-22T09:34:38.593Z,268.52
2019-01-22T09:35:38.733Z,266.76
2019-01-22T09:36:39.004Z,267.58
2019-01-22T09:37:39.066Z,267.70
2019-01-22T09:38:39.254Z,267.66
2019-01-22T09:39:39.430Z,267.77
2019-01-22T09:40:39.565Z,268.18
2019-01-22T09:41:39.763Z,268.53
2019-01-22T09:42:39.895Z,267.11
2019-01-22T09:43:40.096Z,267.10
2019-01-22T09:44:40.346Z,268.46
2019-01-22T09:45:40.413Z,268.05
2019-01-22T09:46:40.604Z,268.71
2019-01-22T09:47:40.754Z,267.40
2019-01-22T09:48:40.921Z,267.41
2019-01-22T09:49:41.085Z,267.94
2019-01-22T09:50:41.261Z,267.28
2019-01-22T09:51:41.461Z,267.39
2019-01-22T09:52:41.634Z,268.86
2019-01-22T09:53:41.794Z,267.92
2019-01-22T09:54:41.940Z,268.20
2019-01-22T09:55:42.145Z,268.52
2019-01-22T09:56:42.317Z,267.53
2019-01-22T09:57:42.463Z,267.47
2019-01-22T09:58:42.652Z,267.63
2019-01-22T09:59:42.803Z,267.91
2019-01-22T10:00:42.976Z,267.46
2019-01-22T10:01:43.271Z,267.33
2019-01-22T10:02:43.304Z,268.28
2019-01-22T10:03:43.493Z,268.81
2019-01-22T10:04:43.628Z,268.06
2019-01-22T10:05:43.812Z,268.00
2019-01-22T10:06:44.019Z,267.51
2019-01-22T10:07:44.160Z,268.75
2019-01-22T10:08:44.344Z,268.76
2019-01-22T10:09:44.598Z,268.20
2019-01-22T10:10:44.669Z,267.01
2019-01-22T10:11:44.864Z,267.31
2019-01-22T10:12:45.009Z,266.88
2019-01-22T10:13:48.251Z,267.38
2019-01-22T10:14:45.343Z,268.08
2019-01-22T10:15:45.491Z,267.61
2019-01-22T10:16:45.717Z,268.89
2019-01-22T10:17:45.917Z,268.13
2019-01-22T10:18:46.029Z,267.94
2019-01-22T10:19:46.192Z,268.73
2019-01-22T10:20:46.366Z,268.81
2019-01-22T10:21:46.539Z,268.00
2019-01-22T10:22:46.689Z,268.43
2019-01-22T10:23:46.996Z,268.50
2019-01-22T10:24:47.057Z,267.05
2019-01-22T10:25:47.265Z,268.95
2019-01-22T10:26:47.406Z,268.20
2019-01-22T10:27:47.532Z,268.46
2019-01-22T10:28:47.715Z,268.28
2019-01-22T10:29:47.910Z,268.61
2019-01-22T10:30:48.075Z,268.02
2019-01-22T10:31:50.452Z,267.13
2019-01-22T10:32:48.403Z,268.96
2019-01-22T10:33:48.572Z,267.63
2019-01-22T10:34:48.807Z,267.95
2019-01-22T10:35:48.907Z,267.84
2019-01-22T10:36:49.102Z,268.38
2019-01-22T10:37:49.241Z,267.69
2019-01-22T10:38:49.398Z,268.79
2019-01-22T10:39:49.595Z,267.15
2019-01-22T10:40:49.751Z,267.85
2019-01-22T10:41:49.957Z,268.26
2019-01-22T10:42:50.206Z,267.37
2019-01-22T10:43:50.242Z,267.88
2019-01-22T10:44:50.651Z,268.61
2019-01-22T10:45:50.612Z,267.99
2019-01-22T10:46:50.775Z,268.43
2019-01-22T10:47:50.932Z,268.74
2019-01-22T10:48:51.100Z,268.08
2019-01-22T10:49:51.263Z,269.43
2019-01-22T10:50:51.527Z,268.40
2019-01-22T10:51:51.626Z,269.01
2019-01-22T10:52:51.779Z,267.58
2019-01-22T10:53:51.948Z,268.26
2019-01-22T10:54:52.135Z,268.17
2019-01-22T10:55:52.288Z,267.71
2019-01-22T10:56:52.477Z,266.72
2019-01-22T10:57:52.625Z,266.85
2019-01-22T10:58:52.837Z,268.85
2019-01-22T10:59:52.961Z,267.53
2019-01-22T11:00:53.117Z,268.31
2019-01-22T11:01:53.313Z,267.82
2019-01-22T11:02:53.469Z,267.61
2019-01-22T11:03:53.635Z,267.20
2019-01-22T11:04:53.826Z,267.00
2019-01-22T11:05:53.978Z,268.07
2019-01-22T11:06:54.224Z,268.32
2019-01-22T11:07:54.336Z,267.67
2019-01-22T11:08:54.486Z,268.27
2019-01-22T11:09:54.673Z,267.63
2019-01-22T11:10:54.832Z,267.79
2019-01-22T11:11:55.020Z,268.77
2019-01-22T11:12:55.146Z,268.64
2019-01-22T11:13:55.344Z,266.99
2019-01-22T11:14:55.525Z,268.22
2019-01-22T11:15:55.793Z,267.44
2019-01-22T11:16:55.856Z,268.08
2019-01-22T11:17:55.992Z,267.28
2019-01-22T11:18:56.175Z,267.60
2019-01-22T11:19:56.354Z,266.74
2019-01-22T11:20:56.531Z,268.24
2019-01-22T11:21:56.696Z,268.46
2019-01-22T11:22:56.829Z,268.02
2019-01-22T11:23:57.105Z,267.91
2019-01-22T11:24:57.205Z,268.54
2019-01-22T11:25:57.380Z,268.10
2019-01-22T11:26:57.546Z,267.97
2019-01-22T11:27:57.694Z,266.76
2019-01-22T11:28:57.846Z,267.15
2019-01-22T11:29:58.049Z,269.12
2019-01-22T11:30:58.199Z,268.32
2019-01-22T11:31:58.468Z,267.56
2019-01-22T11:32:58.537Z,267.13
2019-01-22T11:33:58.677Z,268.06
2019-01-22T11:34:58.886Z,266.25
2019-01-22T11:35:59.036Z,268.32
2019-01-22T11:36:59.214Z,265.87
2019-01-22T11:37:59.375Z,267.26
2019-01-22T11:38:59.545Z,269.52
2019-01-22T11:39:59.741Z,267.89
2019-01-22T11:40:59.859Z,267.34
2019-01-22T11:42:00.045Z,217.05
2019-01-22T11:43:00.228Z,217.02
2019-01-22T11:44:00.396Z,216.97
2019-01-22T11:45:00.600Z,267.27
2019-01-22T11:46:00.732Z,267.47
2019-01-22T11:47:00.932Z,267.88
2019-01-22T11:48:01.138Z,267.42
2019-01-22T11:49:01.330Z,267.04
2019-01-22T11:50:01.437Z,268.50
2019-01-22T11:51:01.587Z,267.59
2019-01-22T11:52:01.754Z,268.34
2019-01-22T11:53:01.940Z,268.12
2019-01-22T11:54:02.093Z,268.72
2019-01-22T11:55:02.286Z,267.96
2019-01-22T11:56:02.452Z,268.10
2019-01-22T11:57:02.704Z,267.50
2019-01-22T11:58:02.794Z,267.05
2019-01-22T11:59:02.931Z,268.07
2019-01-22T12:00:03.119Z,267.49
2019-01-22T12:01:03.311Z,267.02
2019-01-22T12:02:03.430Z,268.39
2019-01-22T12:03:03.637Z,268.87
2019-01-22T12:04:03.776Z,268.25
2019-01-22T12:05:04.049Z,268.13
2019-01-22T12:06:04.124Z,267.35
2019-01-22T12:07:04.262Z,268.55
2019-01-22T12:08:04.459Z,267.16
2019-01-22T12:09:04.604Z,267.12
2019-01-22T12:10:04.800Z,268.29
2019-01-22T12:11:04.970Z,266.86
2019-01-22T12:12:05.119Z,266.73
2019-01-22T12:13:05.307Z,266.43
2019-01-22T12:14:05.437Z,267.45
2019-01-22T12:15:05.630Z,268.92
2019-01-22T12:16:05.803Z,267.34
2019-01-22T12:17:05.973Z,267.09
2019-01-22T12:18:06.131Z,266.62
2019-01-22T12:19:06.267Z,266.79
2019-01-22T12:20:06.472Z,267.73
2019-01-22T12:21:06.762Z,267.17
2019-01-22T12:22:06.828Z,267.71
2019-01-22T12:23:07.230Z,266.04
2019-01-22T12:24:07.130Z,267.84
2019-01-22T12:25:07.348Z,265.67
2019-01-22T12:26:07.520Z,266.63
2019-01-22T12:27:07.672Z,266.76
2019-01-22T12:28:07.858Z,267.11
2019-01-22T12:29:08.012Z,267.01
2019-01-22T12:30:08.302Z,266.55